createdAt,value
2019-03-10T00:00:53.699Z,79.30
2019-03-10T00:03:21.563Z,79.40
2019-03-10T00:05:49.407Z,79.60
2019-03-10T00:08:17.255Z,79.50
2019-03-10T00:10:45.467Z,79.50
2019-03-10T00:13:13.311Z,79.60
2019-03-10T00:15:41.155Z,79.70
2019-03-10T00:18:09.079Z,79.70
2019-03-10T00:20:37.221Z,79.80
2019-03-10T00:23:05.146Z,79.60
2019-03-10T00:25:33.176Z,79.70
2019-03-10T00:28:01.431Z,79.70
2019-03-10T00:30:29.271Z,79.80
2019-03-10T00:32:57.206Z,79.70
2019-03-10T00:35:25.048Z,79.90
2019-03-10T00:37:53.228Z,80.00
2019-03-10T00:40:39.705Z,80.10
2019-03-10T00:43:25.896Z,80.00
2019-03-10T00:46:28.248Z,80.10
2019-03-10T00:49:14.398Z,80.00
2019-03-10T00:51:51.039Z,80.00
2019-03-10T00:54:18.918Z,80.10
2019-03-10T00:56:46.924Z,80.20
2019-03-10T00:59:14.764Z,80.30
2019-03-10T01:01:43.444Z,80.30
2019-03-10T01:04:11.291Z,80.30
2019-03-10T01:06:39.252Z,80.20
2019-03-10T01:09:07.173Z,80.20
2019-03-10T01:11:35.007Z,80.30
2019-03-10T01:14:02.859Z,80.30
2019-03-10T01:16:31.444Z,80.30
2019-03-10T01:18:59.300Z,80.30
2019-03-10T01:21:27.577Z,80.30
2019-03-10T01:23:55.499Z,80.30
2019-03-10T01:26:23.349Z,80.10
2019-03-10T01:28:51.487Z,80.20
2019-03-10T01:31:25.660Z,80.30
2019-03-10T01:34:06.531Z,80.20
2019-03-10T01:36:35.056Z,80.30
2019-03-10T01:39:02.903Z,80.10
2019-03-10T01:41:31.118Z,80.20
2019-03-10T01:43:58.963Z,80.20
2019-03-10T01:46:26.883Z,80.20
2019-03-10T01:48:54.729Z,80.20
2019-03-10T01:51:22.580Z,80.10
2019-03-10T01:53:50.420Z,80.10
2019-03-10T01:56:18.263Z,80.10
2019-03-10T01:58:46.111Z,80.10
2019-03-10T02:01:13.955Z,80.20
2019-03-10T02:03:42.100Z,80.10
2019-03-10T02:06:09.936Z,80.00
2019-03-10T02:08:37.784Z,80.00
2019-03-10T02:11:05.635Z,80.10
2019-03-10T02:13:34.097Z,80.00
2019-03-10T02:16:01.944Z,80.00
2019-03-10T02:18:29.787Z,80.00
2019-03-10T02:20:57.632Z,80.00
2019-03-10T02:23:25.479Z,80.10
2019-03-10T02:25:53.322Z,80.00
2019-03-10T02:28:21.175Z,79.90
2019-03-10T02:30:49.344Z,80.00
2019-03-10T02:33:17.540Z,79.90
2019-03-10T02:35:45.388Z,80.00
2019-03-10T02:38:13.240Z,79.90
2019-03-10T02:40:43.277Z,80.00
2019-03-10T02:43:10.651Z,79.90
2019-03-10T02:45:38.494Z,79.90
2019-03-10T02:48:06.344Z,79.90
2019-03-10T02:50:34.180Z,79.90
2019-03-10T02:53:02.049Z,79.90
2019-03-10T02:55:30.269Z,79.90
2019-03-10T02:57:58.141Z,79.90
2019-03-10T03:00:25.986Z,79.90
2019-03-10T03:02:53.857Z,79.90
2019-03-10T03:05:21.712Z,79.90
2019-03-10T03:07:49.575Z,79.90
2019-03-10T03:10:17.421Z,79.90
2019-03-10T03:12:45.325Z,79.80
2019-03-10T03:15:13.284Z,79.90
2019-03-10T03:17:41.127Z,79.80
2019-03-10T03:20:09.183Z,79.80
2019-03-10T03:22:37.026Z,79.90
2019-03-10T03:25:05.508Z,79.80
2019-03-10T03:27:33.347Z,79.80
2019-03-10T03:30:01.378Z,79.70
2019-03-10T03:32:29.345Z,79.80
2019-03-10T03:34:57.561Z,79.80
2019-03-10T03:37:25.804Z,79.70
2019-03-10T03:39:54.465Z,79.70
2019-03-10T03:42:22.385Z,79.80
2019-03-10T03:44:50.262Z,79.70
2019-03-10T03:47:18.112Z,79.70
2019-03-10T03:49:46.306Z,79.70
2019-03-10T03:52:14.156Z,79.70
2019-03-10T03:54:41.993Z,79.70
2019-03-10T03:57:09.925Z,79.60
2019-03-10T03:59:38.051Z,79.90
2019-03-10T04:02:25.100Z,79.60
2019-03-10T04:04:53.025Z,80.00
2019-03-10T04:07:20.936Z,80.10
2019-03-10T04:09:48.945Z,80.20
2019-03-10T04:12:16.896Z,80.20
2019-03-10T04:14:44.745Z,80.30
2019-03-10T04:17:12.585Z,80.10
2019-03-10T04:19:40.859Z,80.10
2019-03-10T04:22:08.763Z,80.30
2019-03-10T04:24:36.900Z,80.30
2019-03-10T04:27:04.743Z,80.20
2019-03-10T04:29:32.616Z,80.20
2019-03-10T04:32:00.460Z,80.30
2019-03-10T04:34:28.679Z,80.20
2019-03-10T04:36:56.535Z,80.40
2019-03-10T04:39:24.406Z,80.30
2019-03-10T04:41:52.251Z,80.40
2019-03-10T04:44:20.540Z,80.40
2019-03-10T04:46:48.388Z,80.40
2019-03-10T04:49:16.259Z,80.40
2019-03-10T04:51:44.096Z,80.30
2019-03-10T04:54:11.967Z,80.50
2019-03-10T04:56:53.072Z,80.40
2019-03-10T04:59:20.951Z,80.40
2019-03-10T05:01:48.952Z,80.40
2019-03-10T05:04:16.815Z,80.50
2019-03-10T05:06:44.663Z,80.50
2019-03-10T05:09:12.540Z,80.40
2019-03-10T05:11:40.688Z,80.40
2019-03-10T05:14:08.852Z,80.40
2019-03-10T05:16:37.028Z,80.50
2019-03-10T05:19:05.204Z,80.40
2019-03-10T05:21:33.047Z,80.40
2019-03-10T05:24:03.444Z,80.40
2019-03-10T05:26:31.287Z,80.40
2019-03-10T05:28:59.131Z,80.40
2019-03-10T05:31:26.976Z,80.30
2019-03-10T05:33:54.815Z,80.40
2019-03-10T05:36:22.666Z,80.50
2019-03-10T05:38:50.795Z,80.40
2019-03-10T05:41:18.713Z,80.40
2019-03-10T05:43:46.579Z,80.50
2019-03-10T05:46:14.423Z,80.50
2019-03-10T05:48:42.267Z,80.50
2019-03-10T05:51:10.111Z,80.50
2019-03-10T05:53:37.955Z,80.50
2019-03-10T05:56:05.802Z,80.60
2019-03-10T05:58:35.268Z,80.50
2019-03-10T06:01:03.507Z,80.50
2019-03-10T06:03:31.355Z,80.50
2019-03-10T06:05:59.222Z,80.70
2019-03-10T06:08:27.359Z,80.60
2019-03-10T06:10:55.240Z,80.70
2019-03-10T06:13:23.076Z,80.60
2019-03-10T06:15:51.296Z,80.60
2019-03-10T06:18:19.163Z,80.70
2019-03-10T06:20:47.389Z,80.70
2019-03-10T06:23:15.233Z,80.70
2019-03-10T06:25:43.107Z,80.70
2019-03-10T06:28:10.948Z,80.80
2019-03-10T06:30:38.819Z,80.80
2019-03-10T06:33:06.653Z,80.50
2019-03-10T06:35:34.515Z,80.80
2019-03-10T06:38:02.655Z,80.70
2019-03-10T06:40:32.489Z,80.70
2019-03-10T06:43:00.086Z,80.70
2019-03-10T06:45:27.959Z,80.80
2019-03-10T06:47:55.807Z,80.80
2019-03-10T06:50:23.675Z,81.00
2019-03-10T06:52:51.519Z,81.10
2019-03-10T06:55:19.363Z,81.10
2019-03-10T06:57:47.628Z,81.10
2019-03-10T07:00:15.549Z,81.10
2019-03-10T07:02:43.383Z,81.20
2019-03-10T07:05:11.344Z,81.10
2019-03-10T07:07:39.200Z,81.00
2019-03-10T07:10:08.240Z,80.90
2019-03-10T07:12:36.084Z,81.30
2019-03-10T07:15:04.184Z,81.50
2019-03-10T07:17:32.504Z,81.60
2019-03-10T07:20:00.772Z,81.70
2019-03-10T07:22:28.689Z,81.70
2019-03-10T07:24:56.536Z,81.70
2019-03-10T07:27:26.579Z,81.60
2019-03-10T07:30:13.548Z,81.50
2019-03-10T07:32:51.060Z,81.50
2019-03-10T07:35:38.024Z,81.50
2019-03-10T07:38:12.795Z,81.50
2019-03-10T07:40:52.231Z,81.20
2019-03-10T07:43:39.212Z,81.20
2019-03-10T07:46:35.536Z,81.10
2019-03-10T07:49:11.932Z,81.10
2019-03-10T07:52:05.504Z,81.20
2019-03-10T07:54:51.339Z,81.10
2019-03-10T07:57:38.312Z,80.90
2019-03-10T08:00:24.201Z,80.70
2019-03-10T08:03:10.051Z,80.60
2019-03-10T08:05:44.964Z,80.30
2019-03-10T08:08:35.039Z,80.40
2019-03-10T08:11:24.811Z,80.30
2019-03-10T08:14:02.279Z,80.40
2019-03-10T08:16:55.514Z,80.30
2019-03-10T08:19:48.343Z,80.20
2019-03-10T08:22:38.388Z,80.50
2019-03-10T08:25:28.228Z,80.20
2019-03-10T08:28:09.326Z,80.30
2019-03-10T08:31:11.752Z,80.70
2019-03-10T08:33:58.096Z,80.60
2019-03-10T08:36:54.483Z,80.60
2019-03-10T08:39:29.568Z,80.50
2019-03-10T08:42:29.280Z,80.30
2019-03-10T08:45:02.177Z,80.30
2019-03-10T08:47:37.128Z,80.30
2019-03-10T08:50:21.345Z,80.20
2019-03-10T08:52:54.784Z,80.10
2019-03-10T08:55:29.280Z,80.10
2019-03-10T08:58:07.303Z,80.10
2019-03-10T09:00:54.273Z,80.10
2019-03-10T09:03:40.702Z,80.00
2019-03-10T09:06:15.264Z,80.00
2019-03-10T09:09:02.523Z,80.00
2019-03-10T09:11:48.547Z,79.80
2019-03-10T09:14:41.835Z,79.80
2019-03-10T09:17:18.085Z,79.80
2019-03-10T09:20:04.347Z,79.70
2019-03-10T09:22:58.215Z,79.80
2019-03-10T09:25:53.635Z,79.80
2019-03-10T09:28:32.372Z,79.80
2019-03-10T09:31:17.954Z,79.70
2019-03-10T09:33:52.129Z,79.80
2019-03-10T09:36:42.952Z,79.80
2019-03-10T09:39:28.818Z,80.10
2019-03-10T09:42:14.452Z,80.30
2019-03-10T09:45:20.122Z,80.50
2019-03-10T09:48:19.696Z,80.60
2019-03-10T09:51:06.782Z,80.60
2019-03-10T09:53:52.945Z,80.60
2019-03-10T09:56:52.077Z,80.60
2019-03-10T09:59:38.002Z,80.50
2019-03-10T10:02:22.540Z,80.50
2019-03-10T10:05:15.431Z,80.30
2019-03-10T10:08:20.951Z,80.50
2019-03-10T10:11:04.203Z,80.30
2019-03-10T10:13:40.105Z,80.40
2019-03-10T10:16:30.591Z,80.30
2019-03-10T10:19:17.691Z,80.40
2019-03-10T10:21:56.172Z,80.40
2019-03-10T10:24:36.343Z,80.20
2019-03-10T10:27:14.532Z,80.20
2019-03-10T10:30:00.449Z,80.20
2019-03-10T10:32:53.656Z,80.30
2019-03-10T10:35:49.932Z,80.30
2019-03-10T10:38:41.052Z,80.30
2019-03-10T10:41:22.724Z,80.30
2019-03-10T10:44:08.719Z,80.20
2019-03-10T10:46:51.583Z,80.20
2019-03-10T10:49:57.221Z,80.20
2019-03-10T10:52:47.500Z,80.30
2019-03-10T10:55:20.890Z,80.20
2019-03-10T10:58:10.880Z,80.20
2019-03-10T11:00:56.594Z,80.20
2019-03-10T11:03:46.665Z,80.20
2019-03-10T11:06:36.704Z,80.30
2019-03-10T11:09:17.997Z,80.10
2019-03-10T11:12:11.031Z,80.10
2019-03-10T11:15:04.104Z,80.10
2019-03-10T11:18:09.957Z,80.20
2019-03-10T11:20:52.803Z,80.10
2019-03-10T11:23:36.335Z,80.20
2019-03-10T11:26:32.338Z,80.10
2019-03-10T11:29:09.645Z,80.10
2019-03-10T11:31:52.648Z,80.10
2019-03-10T11:34:39.629Z,80.10
2019-03-10T11:37:25.264Z,80.10
2019-03-10T11:40:12.345Z,80.10
2019-03-10T11:42:48.396Z,80.00
2019-03-10T11:45:34.440Z,80.10
2019-03-10T11:48:31.088Z,80.10
2019-03-10T11:51:18.348Z,80.00
2019-03-10T11:53:53.196Z,80.00
2019-03-10T11:56:38.191Z,80.00
2019-03-10T11:59:28.866Z,80.00
2019-03-10T12:02:15.458Z,80.00
2019-03-10T12:05:02.240Z,80.00
2019-03-10T12:07:46.939Z,80.00
2019-03-10T12:10:15.100Z,80.00
2019-03-10T12:12:43.578Z,79.80
2019-03-10T12:15:11.814Z,79.90
2019-03-10T12:17:39.663Z,80.00
2019-03-10T12:20:08.411Z,79.80
2019-03-10T12:22:36.248Z,79.80
2019-03-10T12:25:04.508Z,79.80
2019-03-10T12:27:32.616Z,79.90
2019-03-10T12:30:00.792Z,79.80
2019-03-10T12:32:28.723Z,79.80
2019-03-10T12:34:56.596Z,79.80
2019-03-10T12:37:24.826Z,80.50
2019-03-10T12:39:52.699Z,79.80
2019-03-10T12:42:20.544Z,79.80
2019-03-10T12:44:48.449Z,79.80
2019-03-10T12:47:16.289Z,79.80
2019-03-10T12:49:44.163Z,79.80
2019-03-10T12:52:12.006Z,79.80
2019-03-10T12:54:39.848Z,79.70
2019-03-10T12:57:07.699Z,79.90
2019-03-10T12:59:36.232Z,79.80
2019-03-10T13:02:04.079Z,79.80
2019-03-10T13:04:31.952Z,79.70
2019-03-10T13:06:59.880Z,79.70
2019-03-10T13:09:27.729Z,78.90
2019-03-10T13:11:55.874Z,77.10
2019-03-10T13:14:24.248Z,77.50
2019-03-10T13:16:52.410Z,77.80
2019-03-10T13:19:20.255Z,77.60
2019-03-10T13:21:48.103Z,77.80
2019-03-10T13:24:15.947Z,77.80
2019-03-10T13:26:44.124Z,78.70
2019-03-10T13:29:12.047Z,77.80
2019-03-10T13:31:39.897Z,77.90
2019-03-10T13:34:08.079Z,77.90
2019-03-10T13:36:35.925Z,77.90
2019-03-10T13:39:05.688Z,77.90
2019-03-10T13:41:33.535Z,78.20
2019-03-10T13:44:01.383Z,78.10
2019-03-10T13:46:29.566Z,78.10
2019-03-10T13:48:57.407Z,78.10
2019-03-10T13:51:25.576Z,78.10
2019-03-10T13:53:53.420Z,78.20
2019-03-10T13:56:21.284Z,78.50
2019-03-10T13:58:49.124Z,78.60
2019-03-10T14:01:17.323Z,78.80
2019-03-10T14:03:45.163Z,78.60
2019-03-10T14:06:13.016Z,78.70
2019-03-10T14:08:40.928Z,78.60
2019-03-10T14:11:08.797Z,78.50
2019-03-10T14:13:37.007Z,78.20
2019-03-10T14:16:04.896Z,78.40
2019-03-10T14:18:33.072Z,78.30
2019-03-10T14:21:01.039Z,78.50
2019-03-10T14:23:28.911Z,78.40
2019-03-10T14:25:57.261Z,78.60
2019-03-10T14:28:25.640Z,79.30
2019-03-10T14:30:54.024Z,78.40
2019-03-10T14:33:21.877Z,78.30
2019-03-10T14:35:50.390Z,78.30
2019-03-10T14:38:18.643Z,78.40
2019-03-10T14:40:46.487Z,78.40
2019-03-10T14:43:14.735Z,78.50
2019-03-10T14:45:42.579Z,78.40
2019-03-10T14:48:10.732Z,78.90
2019-03-10T14:50:38.583Z,79.40
2019-03-10T14:53:06.430Z,79.20
2019-03-10T14:55:34.382Z,79.30
2019-03-10T14:58:02.924Z,79.70
2019-03-10T15:00:31.032Z,79.50
2019-03-10T15:02:58.871Z,79.70
2019-03-10T15:05:27.103Z,79.60
2019-03-10T15:07:54.950Z,79.70
2019-03-10T15:10:22.793Z,79.60
2019-03-10T15:12:51.006Z,79.70
2019-03-10T15:15:22.837Z,79.80
2019-03-10T15:17:48.620Z,79.70
2019-03-10T15:20:16.472Z,79.70
2019-03-10T15:22:44.361Z,79.50
2019-03-10T15:25:12.812Z,79.50
2019-03-10T15:27:40.674Z,79.80
2019-03-10T15:30:10.343Z,79.80
2019-03-10T15:32:38.213Z,79.70
2019-03-10T15:35:06.215Z,79.80
2019-03-10T15:37:34.068Z,79.90
2019-03-10T15:40:01.914Z,79.80
2019-03-10T15:42:30.021Z,79.80
2019-03-10T15:44:57.871Z,79.70
2019-03-10T15:47:25.831Z,79.60
2019-03-10T15:49:53.684Z,79.70
2019-03-10T15:52:21.560Z,79.70
2019-03-10T15:54:49.447Z,79.40
2019-03-10T15:57:17.939Z,79.40
2019-03-10T15:59:45.780Z,79.40
2019-03-10T16:02:13.976Z,79.10
2019-03-10T16:04:41.824Z,79.10
2019-03-10T16:07:09.699Z,79.10
2019-03-10T16:09:37.744Z,79.10
2019-03-10T16:12:05.977Z,79.00
2019-03-10T16:14:33.823Z,79.00
2019-03-10T16:17:01.724Z,79.00
2019-03-10T16:19:29.571Z,79.00
2019-03-10T16:21:57.532Z,79.20
2019-03-10T16:24:25.695Z,79.00
2019-03-10T16:26:53.549Z,79.10
2019-03-10T16:29:21.484Z,79.00
2019-03-10T16:31:49.324Z,79.00
2019-03-10T16:34:17.470Z,78.90
2019-03-10T16:36:45.671Z,78.90
2019-03-10T16:39:13.587Z,78.90
2019-03-10T16:41:41.436Z,78.90
2019-03-10T16:44:09.279Z,78.90
2019-03-10T16:46:39.171Z,78.90
2019-03-10T16:49:06.697Z,78.80
2019-03-10T16:51:34.543Z,78.80
2019-03-10T16:54:02.396Z,78.80
2019-03-10T16:56:33.395Z,78.90
2019-03-10T16:59:01.613Z,78.90
2019-03-10T17:01:29.873Z,78.80
2019-03-10T17:03:58.029Z,78.70
2019-03-10T17:06:25.876Z,78.80
2019-03-10T17:08:53.735Z,78.90
2019-03-10T17:11:21.731Z,79.60
2019-03-10T17:13:50.000Z,80.00
2019-03-10T17:16:17.856Z,79.80
2019-03-10T17:18:45.703Z,79.60
2019-03-10T17:21:13.556Z,79.40
2019-03-10T17:23:41.405Z,79.20
2019-03-10T17:26:09.286Z,79.10
2019-03-10T17:28:37.239Z,79.00
2019-03-10T17:31:05.355Z,79.40
2019-03-10T17:33:33.236Z,79.30
2019-03-10T17:36:01.088Z,79.30
2019-03-10T17:38:30.883Z,79.70
2019-03-10T17:40:58.732Z,80.00
2019-03-10T17:43:26.935Z,80.20
2019-03-10T17:45:55.197Z,80.10
2019-03-10T17:48:23.386Z,80.50
2019-03-10T17:50:51.227Z,80.20
2019-03-10T17:53:19.104Z,79.50
2019-03-10T17:55:47.292Z,79.40
2019-03-10T17:58:15.563Z,79.40
2019-03-10T18:00:43.479Z,79.20
2019-03-10T18:03:11.357Z,79.40
2019-03-10T18:05:39.200Z,79.30
2019-03-10T18:08:07.339Z,79.30
2019-03-10T18:10:35.183Z,79.20
2019-03-10T18:13:03.483Z,79.20
2019-03-10T18:15:31.675Z,79.40
2019-03-10T18:17:59.827Z,79.20
2019-03-10T18:20:27.672Z,79.40
2019-03-10T18:22:55.548Z,79.30
2019-03-10T18:25:23.733Z,79.40
2019-03-10T18:27:51.924Z,79.10
2019-03-10T18:30:19.783Z,79.00
2019-03-10T18:32:47.631Z,78.90
2019-03-10T18:35:15.475Z,78.90
2019-03-10T18:37:43.323Z,79.10
2019-03-10T18:40:12.527Z,79.10
2019-03-10T18:42:40.371Z,79.00
2019-03-10T18:45:09.096Z,78.50
2019-03-10T18:47:37.019Z,78.60
2019-03-10T18:50:05.319Z,78.80
2019-03-10T18:52:33.456Z,78.80
2019-03-10T18:55:01.459Z,78.70
2019-03-10T18:57:30.008Z,78.70
2019-03-10T18:59:58.161Z,78.60
2019-03-10T19:02:26.004Z,78.70
2019-03-10T19:04:53.861Z,78.60
2019-03-10T19:07:21.781Z,78.70
2019-03-10T19:09:49.935Z,78.70
2019-03-10T19:12:17.802Z,78.60
2019-03-10T19:14:45.991Z,78.50
2019-03-10T19:17:13.863Z,78.40
2019-03-10T19:19:41.790Z,78.50
2019-03-10T19:22:09.636Z,78.40
2019-03-10T19:24:37.869Z,78.40
2019-03-10T19:27:05.719Z,78.50
2019-03-10T19:29:33.982Z,78.30
2019-03-10T19:32:01.903Z,78.50
2019-03-10T19:34:29.772Z,78.50
2019-03-10T19:36:57.777Z,78.80
2019-03-10T19:39:25.988Z,78.60
2019-03-10T19:41:53.868Z,78.50
2019-03-10T19:44:21.747Z,78.60
2019-03-10T19:46:49.592Z,78.80
2019-03-10T19:49:17.548Z,78.60
2019-03-10T19:51:45.462Z,78.30
2019-03-10T19:54:13.344Z,78.30
2019-03-10T19:56:41.546Z,78.50
2019-03-10T19:59:09.604Z,78.40
2019-03-10T20:01:37.444Z,78.30
2019-03-10T20:04:05.653Z,78.40
2019-03-10T20:06:33.512Z,78.40
2019-03-10T20:09:01.638Z,78.20
2019-03-10T20:11:29.708Z,78.20
2019-03-10T20:13:57.551Z,78.10
2019-03-10T20:16:25.399Z,78.00
2019-03-10T20:18:53.252Z,77.70
2019-03-10T20:21:21.123Z,77.40
2019-03-10T20:23:49.403Z,77.50
2019-03-10T20:26:17.272Z,77.40
2019-03-10T20:28:46.380Z,77.40
2019-03-10T20:31:14.233Z,77.30
2019-03-10T20:33:42.076Z,77.20
2019-03-10T20:36:09.958Z,77.30
2019-03-10T20:38:38.860Z,77.60
2019-03-10T20:41:06.811Z,77.30
2019-03-10T20:43:34.751Z,77.40
2019-03-10T20:46:02.971Z,77.30
2019-03-10T20:48:30.859Z,77.60
2019-03-10T20:50:58.733Z,77.10
2019-03-10T20:53:26.572Z,77.00
2019-03-10T20:55:54.447Z,77.00
2019-03-10T20:58:22.404Z,77.10
2019-03-10T21:00:50.424Z,77.20
2019-03-10T21:03:18.267Z,77.30
2019-03-10T21:05:46.136Z,76.30
2019-03-10T21:08:14.276Z,76.50
2019-03-10T21:10:42.442Z,76.20
2019-03-10T21:13:10.284Z,76.30
2019-03-10T21:15:38.163Z,76.00
2019-03-10T21:18:06.093Z,75.90
2019-03-10T21:20:34.327Z,76.00
2019-03-10T21:23:02.519Z,75.90
2019-03-10T21:25:30.566Z,75.90
2019-03-10T21:27:58.427Z,76.80
2019-03-10T21:30:26.623Z,76.70
2019-03-10T21:32:54.495Z,76.30
2019-03-10T21:35:22.424Z,75.90
2019-03-10T21:37:50.611Z,76.10
2019-03-10T21:40:19.481Z,75.80
2019-03-10T21:42:47.395Z,76.40
2019-03-10T21:45:15.286Z,75.90
2019-03-10T21:47:43.410Z,75.60
2019-03-10T21:50:12.128Z,75.80
2019-03-10T21:52:40.269Z,75.80
2019-03-10T21:55:08.240Z,75.80
2019-03-10T21:57:36.088Z,76.20
2019-03-10T22:00:03.947Z,75.80
2019-03-10T22:02:31.887Z,75.70
2019-03-10T22:04:59.816Z,75.80
2019-03-10T22:07:28.082Z,75.40
2019-03-10T22:09:56.268Z,75.70
2019-03-10T22:12:24.146Z,75.70
2019-03-10T22:14:51.991Z,75.50
2019-03-10T22:17:20.359Z,75.40
2019-03-10T22:19:48.307Z,75.50
2019-03-10T22:22:16.512Z,75.40
2019-03-10T22:24:44.980Z,75.60
2019-03-10T22:27:12.859Z,75.40
2019-03-10T22:29:40.721Z,75.30
2019-03-10T22:32:08.999Z,75.10
2019-03-10T22:34:37.575Z,75.80
2019-03-10T22:37:05.463Z,75.60
2019-03-10T22:39:33.311Z,75.40
2019-03-10T22:42:01.188Z,75.20
2019-03-10T22:44:29.035Z,75.00
2019-03-10T22:46:57.216Z,75.20
2019-03-10T22:49:25.055Z,75.50
2019-03-10T22:51:52.931Z,76.40
2019-03-10T22:54:20.823Z,77.60
2019-03-10T22:56:48.776Z,78.10
2019-03-10T22:59:16.874Z,78.30
2019-03-10T23:01:44.744Z,78.30
2019-03-10T23:04:13.655Z,78.70
2019-03-10T23:06:41.883Z,78.80
2019-03-10T23:09:09.739Z,79.20
2019-03-10T23:11:38.236Z,79.30
2019-03-10T23:14:06.407Z,79.20
2019-03-10T23:16:34.303Z,79.40
2019-03-10T23:19:02.151Z,79.40
2019-03-10T23:21:30.033Z,79.50
2019-03-10T23:23:57.891Z,79.40
2019-03-10T23:26:25.827Z,79.60
2019-03-10T23:28:54.276Z,79.60
2019-03-10T23:31:22.355Z,79.60
2019-03-10T23:33:50.228Z,79.60
2019-03-10T23:36:18.362Z,79.80
2019-03-10T23:38:46.535Z,79.80
2019-03-10T23:41:14.611Z,79.80
2019-03-10T23:43:43.019Z,79.70
2019-03-10T23:46:11.023Z,79.80
2019-03-10T23:48:38.908Z,79.90
2019-03-10T23:51:06.756Z,80.00
2019-03-10T23:53:34.610Z,80.10
2019-03-10T23:56:02.791Z,80.00
2019-03-10T23:58:31.060Z,80.00
